Time;durP1;ratioP1;P1;durP2;ratioP2;P2;SDS_P1;SDS_P2;PMS_P1;PMS_P2;Temp;Humidity;BMP_temperature;BMP_pressure;BME280_temperature;BME280_humidity;BME280_pressure;Samples;Min_cycle;Max_cycle;Signal;HPM_P1;HPM_P2
2023/01/24 00:00:11;;;;;;;;;39.00;31.50;;;;;4.48;59.97;102986.13;5128217;27;45434;-72
2023/01/24 00:02:37;;;;;;;;;35.00;30.00;;;;;4.44;60.25;102990.22;5113449;27;45678;-72
2023/01/24 00:05:05;;;;;;;;;43.25;33.25;;;;;4.12;60.63;102938.00;5134809;27;45672;-72
2023/01/24 00:07:34;;;;;;;;;40.25;30.75;;;;;4.32;60.18;102980.75;5126072;27;45994;-74
2023/01/24 00:10:00;;;;;;;;;38.25;29.25;;;;;4.32;60.20;102988.53;5136952;27;45496;-73
2023/01/24 00:12:27;;;;;;;;;34.50;28.75;;;;;3.98;60.88;102938.00;5130189;27;45861;-71
2023/01/24 00:14:53;;;;;;;;;35.75;30.25;;;;;4.13;60.80;102951.06;5133505;27;45347;-73
2023/01/24 00:17:20;;;;;;;;;32.00;29.25;;;;;4.12;60.77;102936.28;5136231;27;45497;-72
2023/01/24 00:19:49;;;;;;;;;37.00;31.50;;;;;4.38;60.81;102982.03;5136981;27;45464;-72
2023/01/24 00:22:15;;;;;;;;;38.50;30.50;;;;;4.15;60.67;102949.47;5136018;27;45491;-73
2023/01/24 00:24:40;;;;;;;;;38.00;30.75;;;;;4.25;60.44;102954.44;5120770;27;45540;-73
2023/01/24 00:27:06;;;;;;;;;39.00;32.00;;;;;4.11;60.64;102926.72;5136093;27;46184;-72
2023/01/24 00:29:34;;;;;;;;;45.50;34.25;;;;;4.03;60.89;102907.19;5136270;27;45349;-72
2023/01/24 00:32:01;;;;;;;;;46.50;34.00;;;;;4.46;60.67;102975.66;5139451;27;45437;-72
2023/01/24 00:34:26;;;;;;;;;47.00;35.50;;;;;4.42;60.57;102978.84;5139896;27;45414;-72
2023/01/24 00:36:51;;;;;;;;;46.75;33.00;;;;;4.17;60.83;102924.50;5133258;27;45948;-74
2023/01/24 00:39:18;;;;;;;;;42.75;34.50;;;;;4.27;61.02;102945.84;5126738;27;45357;-72
2023/01/24 00:41:43;;;;;;;;;47.50;34.50;;;;;4.43;61.25;102971.97;5140415;27;45408;-73
2023/01/24 00:44:09;;;;;;;;;40.00;34.25;;;;;4.46;61.23;102980.84;5137487;27;45493;-72
2023/01/24 00:46:35;;;;;;;;;54.00;41.25;;;;;4.01;60.75;102890.63;5135609;27;45551;-72
2023/01/24 00:49:03;;;;;;;;;49.50;35.75;;;;;4.09;61.46;102911.88;5136085;27;45379;-71
2023/01/24 00:51:32;;;;;;;;;48.25;37.00;;;;;4.24;62.04;102967.31;5113570;27;45392;-72
2023/01/24 00:53:58;;;;;;;;;47.25;36.50;;;;;4.18;62.15;102951.38;5135054;27;45748;-73
2023/01/24 00:56:24;;;;;;;;;48.25;37.00;;;;;4.25;62.23;102970.00;5126406;27;45637;-73
2023/01/24 00:58:49;;;;;;;;;50.00;36.00;;;;;4.07;61.67;102952.38;5140077;27;45303;-72
2023/01/24 01:01:15;;;;;;;;;53.50;37.25;;;;;4.20;62.37;102970.50;5135588;27;45466;-73
2023/01/24 01:03:58;;;;;;;;;;;;;;;;;;;;;
2023/01/24 01:06:44;;;;;;;;;52.75;36.00;;;;;4.21;61.77;102973.19;5140133;27;74099;-73
2023/01/24 01:09:10;;;;;;;;;44.00;35.25;;;;;4.25;61.95;102972.59;5138563;27;45534;-74
2023/01/24 01:11:50;;;;;;;;;49.75;36.50;;;;;4.12;61.85;102956.16;5137928;27;45487;-74
2023/01/24 01:14:15;;;;;;;;;43.50;36.00;;;;;3.75;61.20;102894.16;5142326;27;45435;-72
2023/01/24 01:16:41;;;;;;;;;52.00;36.75;;;;;3.83;61.78;102912.00;5123874;27;46803;-74
2023/01/24 01:19:16;;;;;;;;;49.25;39.50;;;;;3.91;62.08;102955.66;5121974;27;45501;-73
2023/01/24 01:21:54;;;;;;;;;47.25;36.75;;;;;3.94;62.59;102974.00;5102170;27;46127;-73
2023/01/24 01:24:44;;;;;;;;;41.75;32.00;;;;;4.08;62.51;102995.66;5121682;27;45840;-73
2023/01/24 01:27:10;;;;;;;;;48.25;37.50;;;;;3.68;61.90;102923.97;5118437;27;45885;-72
2023/01/24 01:29:36;;;;;;;;;47.50;37.00;;;;;3.89;62.38;102970.22;5121035;27;46902;-73
2023/01/24 01:32:02;;;;;;;;;49.75;37.75;;;;;3.59;62.50;102913.91;5125612;27;45490;-73
2023/01/24 01:34:33;;;;;;;;;42.50;34.00;;;;;4.07;62.47;102992.16;5118490;27;45584;-73
2023/01/24 01:36:59;;;;;;;;;44.75;35.25;;;;;4.01;61.75;102968.41;5106784;27;47726;-72
2023/01/24 01:39:28;;;;;;;;;41.75;33.50;;;;;4.18;62.54;102985.97;5115583;27;45556;-73
2023/01/24 01:41:53;;;;;;;;;48.75;35.00;;;;;4.03;62.30;102959.03;5126842;27;45590;-73
2023/01/24 01:44:41;;;;;;;;;42.50;33.00;;;;;4.15;61.70;102970.22;5121930;27;45469;-73
2023/01/24 01:47:23;;;;;;;;;51.00;41.50;;;;;4.30;61.82;102998.84;5116960;27;45462;-74
2023/01/24 01:50:17;;;;;;;;;49.75;38.00;;;;;4.05;61.90;102962.63;5114380;27;45453;-72
2023/01/24 01:52:43;;;;;;;;;45.75;35.25;;;;;3.99;62.54;102957.06;5116095;27;46282;-75
2023/01/24 01:55:23;;;;;;;;;49.25;35.50;;;;;4.23;62.55;102991.47;5110650;27;45483;-73
2023/01/24 01:57:50;;;;;;;;;49.25;36.25;;;;;4.01;62.58;102937.31;5113785;27;46698;-73
2023/01/24 02:00:20;;;;;;;;;46.25;35.25;;;;;3.79;61.87;102902.22;5117074;27;45824;-73
2023/01/24 02:02:52;;;;;;;;;53.75;39.00;;;;;4.38;62.01;102991.53;5113949;27;45497;-73
2023/01/24 02:05:23;;;;;;;;;49.00;37.25;;;;;4.32;61.87;102971.31;5113264;27;45742;-74
2023/01/24 02:08:05;;;;;;;;;43.75;34.50;;;;;4.08;62.00;102954.16;5118700;27;46145;-72
2023/01/24 02:11:37;;;;;;;;;43.75;34.25;;;;;4.41;61.58;102991.72;5116327;27;45434;-73
2023/01/24 02:13:17;;;;;;;;;52.75;40.00;;;;;4.32;61.82;102984.28;5119078;27;45311;-73
2023/01/24 02:16:03;;;;;;;;;55.75;42.00;;;;;4.38;61.99;103005.41;5125428;27;45399;-73
2023/01/24 02:18:35;;;;;;;;;55.25;39.75;;;;;4.36;61.94;103000.91;5117039;27;45459;-73
2023/01/24 02:21:03;;;;;;;;;49.50;37.25;;;;;4.36;61.85;103009.59;5117362;27;45458;-74
2023/01/24 02:23:43;;;;;;;;;41.25;34.00;;;;;4.40;61.98;103011.59;5119211;27;45285;-72
2023/01/24 02:26:15;;;;;;;;;44.75;38.00;;;;;4.32;61.92;103011.88;5118670;27;45562;-73
2023/01/24 02:28:58;;;;;;;;;50.75;37.25;;;;;4.12;61.91;102962.22;5118854;27;47105;-73
2023/01/24 02:31:24;;;;;;;;;44.75;35.75;;;;;4.32;62.02;102999.84;5107318;27;45587;-72
2023/01/24 02:33:50;;;;;;;;;51.25;38.50;;;;;4.34;61.69;103003.44;5136701;27;45360;-72
2023/01/24 02:36:35;;;;;;;;;51.50;38.25;;;;;4.31;62.27;102998.03;5124455;27;45418;-74
2023/01/24 02:39:08;;;;;;;;;52.75;40.00;;;;;4.18;62.20;102974.72;5137498;27;45630;-73
2023/01/24 02:41:44;;;;;;;;;54.00;40.00;;;;;3.96;61.69;102951.66;5138097;27;45763;-73
2023/01/24 02:44:14;;;;;;;;;49.75;40.50;;;;;4.19;62.40;102995.53;5127207;27;45905;-73
2023/01/24 02:46:44;;;;;;;;;52.00;39.25;;;;;4.17;61.55;102993.66;5141454;27;45275;-73
2023/01/24 02:49:10;;;;;;;;;50.25;36.50;;;;;4.08;61.95;102986.19;5141737;27;45520;-72
2023/01/24 02:54:20;;;;;;;;;50.50;37.50;;;;;4.01;62.18;102984.91;5135227;27;45538;-72
2023/01/24 02:59:36;;;;;;;;;50.00;38.25;;;;;4.02;62.48;102975.41;5124763;27;45605;-73
2023/01/24 03:02:02;;;;;;;;;51.50;37.50;;;;;4.04;61.83;102977.31;5123029;27;45468;-73
2023/01/24 03:04:27;;;;;;;;;49.25;40.25;;;;;3.82;61.89;102927.47;5119382;27;45802;-74
2023/01/24 03:06:53;;;;;;;;;52.00;36.75;;;;;4.18;62.20;102996.34;5140915;27;46044;-74
2023/01/24 03:09:19;;;;;;;;;48.75;35.25;;;;;3.96;61.84;102944.81;5119314;27;45417;-73
2023/01/24 03:11:52;;;;;;;;;51.25;38.00;;;;;4.09;61.50;102972.41;5138056;27;45380;-73
2023/01/24 03:36:19;;;;;;;;;52.25;39.25;;;;;3.90;61.47;102982.41;5127640;27;45496;-73
2023/01/24 03:41:32;;;;;;;;;55.50;43.00;;;;;3.77;61.59;102999.75;5124759;27;45501;-73
2023/01/24 03:43:58;;;;;;;;;57.00;41.50;;;;;2.88;62.24;102851.38;5129023;27;45593;-73
2023/01/24 03:46:24;;;;;;;;;50.50;38.00;;;;;3.40;62.49;102944.59;5137460;27;45520;-75
2023/01/24 03:48:50;;;;;;;;;59.75;43.75;;;;;3.41;62.42;102938.59;5137917;27;45509;-74
2023/01/24 03:54:09;;;;;;;;;48.75;36.75;;;;;3.76;62.42;103000.53;5142039;27;45501;-75
2023/01/24 03:56:34;;;;;;;;;49.25;36.75;;;;;3.36;62.39;102909.78;5122708;27;45534;-74
2023/01/24 03:59:01;;;;;;;;;47.25;36.75;;;;;3.53;62.08;102930.75;5119661;27;45527;-75
2023/01/24 04:01:26;;;;;;;;;58.25;41.00;;;;;3.76;61.91;102972.03;5137776;27;46471;-72
2023/01/24 04:03:52;;;;;;;;;57.50;43.00;;;;;3.70;62.80;102983.66;5141169;27;45459;-74
2023/01/24 04:06:18;;;;;;;;;56.75;45.25;;;;;3.75;62.76;103006.53;5141550;27;45342;-74
2023/01/24 04:08:43;;;;;;;;;57.75;42.50;;;;;3.14;63.08;102916.94;5141488;27;45584;-73
2023/01/24 04:11:09;;;;;;;;;51.75;39.75;;;;;3.48;62.91;102973.59;5139927;27;45355;-73
2023/01/24 04:13:35;;;;;;;;;52.75;42.00;;;;;3.39;62.84;102960.91;5135789;27;45634;-74
2023/01/24 04:16:01;;;;;;;;;56.25;42.00;;;;;3.09;63.21;102910.56;5135885;27;45327;-73
2023/01/24 04:18:29;;;;;;;;;54.00;43.00;;;;;3.66;62.74;103010.22;5128280;27;45687;-72
2023/01/24 04:20:54;;;;;;;;;57.25;43.00;;;;;3.35;63.36;102970.19;5115192;27;45534;-73
2023/01/24 04:23:20;;;;;;;;;50.00;40.75;;;;;3.21;63.07;102950.22;5122265;27;45518;-74
2023/01/24 04:25:54;;;;;;;;;59.75;43.25;;;;;3.11;63.54;102946.13;5115545;27;45433;-74
2023/01/24 04:28:20;;;;;;;;;52.25;40.75;;;;;3.42;63.54;103012.03;5120486;27;45582;-75
2023/01/24 04:30:45;;;;;;;;;51.00;38.25;;;;;3.44;63.24;102994.91;5125221;27;46354;-73
2023/01/24 04:33:11;;;;;;;;;53.00;38.00;;;;;3.27;63.33;102948.03;5104943;27;45487;-73
2023/01/24 04:35:36;;;;;;;;;44.25;37.25;;;;;3.38;63.50;102967.78;5133093;27;45326;-74
2023/01/24 04:38:05;;;;;;;;;51.75;41.75;;;;;3.45;63.21;102976.88;5121911;27;45492;-74
2023/01/24 04:40:34;;;;;;;;;53.00;40.75;;;;;3.37;63.12;102972.88;5122924;27;45785;-74
2023/01/24 04:42:59;;;;;;;;;58.25;41.00;;;;;3.23;63.98;102959.00;5118928;27;45625;-73
2023/01/24 04:45:25;;;;;;;;;52.25;38.00;;;;;3.41;63.94;102987.81;5116528;27;45364;-74
2023/01/24 04:47:51;;;;;;;;;45.75;37.75;;;;;3.26;63.79;102959.19;5110610;27;45541;-74
2023/01/24 04:50:17;;;;;;;;;48.75;36.50;;;;;3.38;63.61;102967.78;5116701;27;45696;-73
2023/01/24 04:52:43;;;;;;;;;48.75;38.50;;;;;3.47;63.71;102970.09;5114962;27;45360;-73
2023/01/24 04:55:08;;;;;;;;;47.50;35.75;;;;;3.73;63.56;103002.03;5118295;27;45514;-73
2023/01/24 04:57:34;;;;;;;;;55.75;39.75;;;;;3.56;62.91;102974.97;5119135;27;46144;-73
2023/01/24 05:00:04;;;;;;;;;55.50;40.25;;;;;3.73;62.69;103015.00;5118415;27;46204;-73
2023/01/24 05:02:32;;;;;;;;;48.75;38.25;;;;;3.71;63.08;103020.06;5123469;27;45415;-73
2023/01/24 05:04:57;;;;;;;;;52.25;42.25;;;;;3.28;63.82;102964.50;5119534;27;45327;-74
2023/01/24 05:07:23;;;;;;;;;51.25;36.25;;;;;3.50;63.27;103006.56;5114886;27;45385;-74
2023/01/24 05:09:49;;;;;;;;;51.00;37.50;;;;;3.22;63.06;102958.88;5119593;27;46311;-73
2023/01/24 05:12:14;;;;;;;;;50.50;37.75;;;;;3.47;63.51;103003.78;5117242;27;45263;-74
2023/01/24 05:14:40;;;;;;;;;49.75;38.00;;;;;3.37;63.87;102996.19;5115065;27;45799;-74
2023/01/24 05:17:15;;;;;;;;;55.75;40.00;;;;;3.55;64.15;103025.03;5115351;27;45493;-74
2023/01/24 05:19:41;;;;;;;;;48.00;38.50;;;;;3.55;64.25;103033.69;5114419;27;46196;-74
2023/01/24 05:22:06;;;;;;;;;52.00;40.00;;;;;3.14;63.45;102967.03;5123687;27;45421;-74
2023/01/24 05:24:33;;;;;;;;;49.75;39.75;;;;;3.29;63.81;102985.28;5117331;27;45484;-74
2023/01/24 05:26:58;;;;;;;;;50.25;37.50;;;;;3.25;63.75;102966.84;5114896;27;45553;-74
2023/01/24 05:29:24;;;;;;;;;45.75;34.00;;;;;3.66;63.97;103034.44;5119923;27;45553;-73
2023/01/24 05:31:50;;;;;;;;;38.25;32.25;;;;;3.57;63.99;103007.88;5120944;27;46634;-75
2023/01/24 05:34:15;;;;;;;;;44.25;32.75;;;;;3.77;63.31;103024.75;5117379;27;45510;-73
2023/01/24 05:36:41;;;;;;;;;43.00;32.50;;;;;3.83;63.54;103031.25;5118943;27;45508;-74
2023/01/24 05:39:06;;;;;;;;;44.00;32.50;;;;;3.63;63.23;102997.03;5121820;27;45884;-74
2023/01/24 05:41:32;;;;;;;;;46.50;36.00;;;;;3.69;63.30;103000.03;5119806;27;45328;-74
2023/01/24 05:43:58;;;;;;;;;45.00;35.50;;;;;3.67;62.88;102986.06;5127875;27;45702;-74
2023/01/24 05:46:23;;;;;;;;;46.25;35.75;;;;;3.96;63.54;103039.84;5126619;27;45352;-73
2023/01/24 05:48:49;;;;;;;;;50.75;38.50;;;;;3.72;63.41;102985.56;5123535;27;45381;-74
2023/01/24 05:51:21;;;;;;;;;44.75;36.50;;;;;3.28;62.35;102925.66;5121569;27;46679;-75
2023/01/24 05:53:48;;;;;;;;;42.25;33.50;;;;;3.99;62.53;103040.94;5114443;27;45651;-74
2023/01/24 05:56:20;;;;;;;;;47.50;35.50;;;;;4.03;62.70;103062.78;5125497;27;45866;-73
2023/01/24 05:58:50;;;;;;;;;55.00;40.75;;;;;3.68;62.70;103012.09;5107936;27;46715;-73
2023/01/24 06:01:19;;;;;;;;;51.50;41.00;;;;;3.48;63.24;102992.63;5120862;27;45606;-73
2023/01/24 06:03:50;;;;;;;;;49.75;36.50;;;;;3.43;63.24;103026.78;5117639;27;45502;-73
2023/01/24 06:06:20;;;;;;;;;48.25;37.50;;;;;3.09;63.64;102985.66;5111141;27;45571;-73
2023/01/24 06:08:49;;;;;;;;;56.50;42.75;;;;;2.99;64.22;102973.78;5121763;27;45467;-72
2023/01/24 06:11:21;;;;;;;;;52.25;38.25;;;;;3.18;64.81;103040.66;5127648;27;45502;-72
2023/01/24 06:13:48;;;;;;;;;43.50;35.25;;;;;2.80;64.61;102963.84;5118376;27;45482;-73
2023/01/24 06:16:23;;;;;;;;;49.25;39.00;;;;;3.35;65.10;103055.66;5127793;27;45574;-73
2023/01/24 06:18:53;;;;;;;;;43.50;38.75;;;;;3.31;64.80;103043.28;5132472;27;46094;-73
2023/01/24 06:22:06;;;;;;;;;51.00;35.25;;;;;3.47;64.91;103067.66;5122857;27;46155;-74
2023/01/24 06:24:33;;;;;;;;;55.25;43.25;;;;;3.07;64.39;103006.25;5113157;27;45450;-73
2023/01/24 06:27:08;;;;;;;;;51.00;38.75;;;;;2.94;65.30;102973.44;5098587;27;45586;-73
2023/01/24 06:29:34;;;;;;;;;49.25;35.25;;;;;3.23;64.70;103018.56;5125757;27;46303;-73
2023/01/24 06:32:27;;;;;;;;;43.75;34.25;;;;;3.28;64.52;103001.66;5117127;27;45517;-74
2023/01/24 06:35:29;;;;;;;;;47.50;35.50;;;;;3.67;64.07;103048.28;5097959;27;45532;-74
2023/01/24 06:37:57;;;;;;;;;44.50;35.75;;;;;3.65;63.74;103031.72;5119339;27;45384;-74
2023/01/24 06:40:24;;;;;;;;;53.25;39.25;;;;;3.80;64.02;103045.72;5125483;27;46316;-74
2023/01/24 06:42:51;;;;;;;;;49.00;39.75;;;;;3.18;63.95;102935.38;5126722;27;45685;-73
2023/01/24 06:45:17;;;;;;;;;48.25;37.25;;;;;3.58;63.28;103007.06;5117022;27;45338;-73
2023/01/24 06:47:43;;;;;;;;;43.50;35.25;;;;;3.90;63.73;103052.41;5108386;27;45787;-73
2023/01/24 06:50:22;;;;;;;;;47.25;36.25;;;;;3.95;64.00;103066.56;5129189;27;46087;-74
2023/01/24 06:52:53;;;;;;;;;42.75;35.00;;;;;3.60;63.28;102992.53;5119752;27;45610;-74
2023/01/24 06:55:22;;;;;;;;;45.25;34.50;;;;;3.88;63.06;103034.16;5121642;27;45454;-74
2023/01/24 06:57:54;;;;;;;;;45.25;37.50;;;;;3.96;63.30;103048.53;5125862;27;45543;-74
2023/01/24 07:00:20;;;;;;;;;48.25;37.25;;;;;4.09;63.08;103065.78;5098294;27;47069;-73
2023/01/24 07:02:46;;;;;;;;;58.25;42.75;;;;;4.09;63.54;103068.38;5098252;27;45425;-74
2023/01/24 07:05:12;;;;;;;;;53.00;42.50;;;;;4.03;62.77;103060.19;5116684;27;45665;-73
2023/01/24 07:07:38;;;;;;;;;56.75;40.75;;;;;3.93;63.38;103069.06;5098237;27;45564;-75
2023/01/24 07:10:05;;;;;;;;;55.75;43.75;;;;;3.55;63.44;103005.19;5119640;27;45726;-73
2023/01/24 07:12:30;;;;;;;;;57.25;45.00;;;;;3.22;63.75;102962.38;5114129;27;45534;-73
2023/01/24 07:14:56;;;;;;;;;51.75;40.50;;;;;3.88;63.24;103080.81;5099303;27;45557;-73
2023/01/24 07:17:22;;;;;;;;;59.50;43.25;;;;;3.60;63.86;103032.31;5116834;27;45734;-73
2023/01/24 07:19:49;;;;;;;;;53.50;41.00;;;;;3.71;63.00;103046.00;5116273;27;45351;-72
2023/01/24 07:22:14;;;;;;;;;51.00;39.75;;;;;3.95;63.76;103079.53;5116311;27;45641;-74
2023/01/24 07:24:41;;;;;;;;;51.75;37.25;;;;;3.97;63.35;103072.75;5119822;27;45540;-74
2023/01/24 07:27:07;;;;;;;;;48.75;40.50;;;;;4.01;63.49;103085.09;5125119;27;45949;-72
2023/01/24 07:29:33;;;;;;;;;58.67;46.00;;;;;3.58;63.13;103018.38;5117340;27;45832;-73
2023/01/24 07:32:02;;;;;;;;;51.75;42.75;;;;;3.97;63.99;103085.72;5113123;27;45536;-73
2023/01/24 07:34:28;;;;;;;;;45.50;33.75;;;;;3.92;63.75;103081.94;5098884;27;45418;-74
2023/01/24 07:36:53;;;;;;;;;50.25;39.50;;;;;4.04;64.23;103093.13;5128753;27;45443;-72
2023/01/24 07:39:19;;;;;;;;;55.25;44.00;;;;;3.63;63.51;103016.09;5121675;27;46799;-72
2023/01/24 07:41:45;;;;;;;;;65.33;46.00;;;;;3.93;62.88;103079.41;5137033;27;45880;-73
2023/01/24 07:44:12;;;;;;;;;65.00;47.00;;;;;3.89;64.55;103105.03;5136510;27;45472;-73
2023/01/24 07:46:37;;;;;;;;;63.33;47.67;;;;;3.75;63.86;103098.91;5137433;27;45484;-73
2023/01/24 07:49:03;;;;;;;;;65.50;47.00;;;;;3.29;64.57;103031.03;5131807;27;46038;-72
2023/01/24 07:51:29;;;;;;;;;65.33;49.67;;;;;3.75;64.78;103117.06;5139208;27;45395;-72
2023/01/24 07:53:54;;;;;;;;;57.25;43.25;;;;;3.66;64.92;103119.94;5140352;27;45446;-71
2023/01/24 07:56:20;;;;;;;;;58.25;46.00;;;;;3.39;64.99;103067.13;5141107;27;45575;-73
2023/01/24 07:58:46;;;;;;;;;59.00;43.50;;;;;3.75;64.31;103117.06;5111804;27;46322;-72
2023/01/24 08:01:19;;;;;;;;;55.50;41.50;;;;;3.52;64.66;103064.59;5095625;27;45593;-73
2023/01/24 08:03:45;;;;;;;;;61.00;47.00;;;;;3.87;64.30;103128.28;5137321;27;45585;-72
2023/01/24 08:06:10;;;;;;;;;61.67;47.33;;;;;3.70;64.56;103111.59;5131075;27;45463;-72
2023/01/24 08:08:36;;;;;;;;;65.00;47.33;;;;;3.65;64.89;103136.28;5136063;27;46502;-73
2023/01/24 08:11:01;;;;;;;;;59.50;44.00;;;;;3.61;64.81;103130.00;5129562;27;45781;-72
2023/01/24 08:13:27;;;;;;;;;56.00;44.25;;;;;3.67;65.33;103133.81;5116677;27;45406;-74
2023/01/24 08:15:53;;;;;;;;;65.00;47.00;;;;;3.26;64.75;103060.22;5116707;27;45322;-73
2023/01/24 08:18:20;;;;;;;;;61.00;47.00;;;;;3.37;65.06;103087.75;5133109;27;45470;-72
2023/01/24 08:20:45;;;;;;;;;56.50;43.00;;;;;3.46;65.23;103113.38;5136608;27;45386;-73
2023/01/24 08:23:11;;;;;;;;;51.25;40.50;;;;;3.67;65.78;103133.81;5133146;27;45250;-72
2023/01/24 08:25:36;;;;;;;;;55.00;41.50;;;;;3.54;65.03;103099.28;5117338;27;45998;-73
2023/01/24 08:28:02;;;;;;;;;49.75;39.25;;;;;3.70;65.30;103115.84;5116945;27;47782;-72
2023/01/24 08:30:28;;;;;;;;;58.50;43.00;;;;;3.87;65.19;103141.25;5136040;27;45942;-74
2023/01/24 08:33:04;;;;;;;;;63.25;45.00;;;;;3.57;65.26;103096.88;5123658;27;45523;-73
2023/01/24 08:35:34;;;;;;;;;60.00;43.50;;;;;3.87;64.87;103141.25;5116192;27;45435;-72
2023/01/24 08:37:59;;;;;;;;;58.75;44.00;;;;;3.59;64.75;103086.63;5126088;27;46470;-73
2023/01/24 08:42:54;;;;;;;;;50.25;38.50;;;;;3.90;64.39;103101.66;5079050;27;45482;-73
2023/01/24 08:45:20;;;;;;;;;55.75;42.50;;;;;3.90;63.83;103109.44;5027951;27;45305;-72
2023/01/24 08:47:51;;;;;;;;;58.00;43.50;;;;;3.94;64.66;103108.84;5025441;27;45893;-72
2023/01/24 08:50:19;;;;;;;;;53.25;40.50;;;;;3.86;63.96;103108.31;5031182;27;45393;-72
2023/01/24 08:52:45;;;;;;;;;64.00;44.25;;;;;4.08;64.33;103140.88;5028838;27;45708;-73
2023/01/24 08:55:11;;;;;;;;;58.00;46.00;;;;;4.19;64.15;103158.97;5026043;27;45688;-74
2023/01/24 08:57:36;;;;;;;;;58.75;45.25;;;;;4.14;63.31;103143.91;5026619;27;45423;-73
2023/01/24 09:00:04;;;;;;;;;61.50;45.75;;;;;4.18;64.11;103157.19;5026501;27;45585;-73
2023/01/24 09:02:32;;;;;;;;;61.25;44.00;;;;;4.13;64.37;103163.75;5025542;27;45994;-73
2023/01/24 09:04:58;;;;;;;;;67.25;48.00;;;;;4.01;63.80;103153.47;5029892;27;45543;-72
2023/01/24 09:07:24;;;;;;;;;64.00;46.75;;;;;3.80;64.77;103121.78;5026685;27;45380;-74
2023/01/24 09:09:50;;;;;;;;;62.50;45.00;;;;;4.00;64.26;103151.63;5026425;27;45533;-73
2023/01/24 09:12:16;;;;;;;;;59.25;43.50;;;;;4.10;64.35;103168.72;5026149;27;46606;-74
2023/01/24 09:14:42;;;;;;;;;55.00;41.50;;;;;4.10;64.70;103165.22;5018464;27;45511;-74
2023/01/24 09:17:07;;;;;;;;;55.25;43.00;;;;;4.05;65.09;103133.78;5025992;27;45447;-74
2023/01/24 09:19:33;;;;;;;;;56.50;44.00;;;;;3.50;64.25;103037.66;5026807;27;45495;-74
2023/01/24 09:21:58;;;;;;;;;62.00;44.00;;;;;4.16;64.22;103143.19;5025419;27;45498;-73
2023/01/24 09:24:24;;;;;;;;;55.25;42.75;;;;;4.22;63.83;103159.19;5026417;27;45608;-74
2023/01/24 09:26:50;;;;;;;;;50.25;38.00;;;;;4.30;64.48;103146.72;5029997;27;45499;-73
2023/01/24 09:29:16;;;;;;;;;62.75;45.50;;;;;4.42;63.35;103163.09;5030561;27;45424;-73
2023/01/24 09:31:42;;;;;;;;;60.25;45.50;;;;;4.44;63.66;103163.19;5026013;27;45514;-75
2023/01/24 09:34:08;;;;;;;;;54.75;42.00;;;;;4.39;64.02;103147.31;5024000;27;45493;-74
2023/01/24 09:36:37;;;;;;;;;54.25;40.75;;;;;4.49;63.71;103166.09;5019662;27;45487;-75
2023/01/24 09:39:07;;;;;;;;;54.50;43.25;;;;;4.54;63.65;103168.19;5016114;27;45687;-75
2023/01/24 09:41:32;;;;;;;;;58.00;44.00;;;;;4.58;63.35;103162.41;5025081;27;46341;-76
2023/01/24 09:44:10;;;;;;;;;56.25;44.50;;;;;4.38;62.94;103123.88;5027994;27;45419;-77
2023/01/24 09:46:50;;;;;;;;;62.00;44.00;;;;;4.63;62.96;103178.28;5029947;27;45344;-76
2023/01/24 09:49:44;;;;;;;;;60.25;44.75;;;;;4.55;63.38;103164.78;5027513;27;45565;-75
2023/01/24 09:52:25;;;;;;;;;61.50;45.75;;;;;3.94;62.75;103059.56;5023294;27;46525;-73
2023/01/24 09:54:55;;;;;;;;;56.25;42.00;;;;;4.53;62.38;103144.72;5008486;27;45398;-75
2023/01/24 09:57:29;;;;;;;;;58.50;43.75;;;;;4.54;62.78;103141.34;5007252;27;45387;-74
2023/01/24 10:00:10;;;;;;;;;59.00;41.75;;;;;4.69;62.64;103176.06;5012142;27;45575;-72
2023/01/24 10:02:35;;;;;;;;;59.00;45.25;;;;;4.63;62.82;103181.78;5004590;27;45813;-71
2023/01/24 10:05:02;;;;;;;;;60.25;44.50;;;;;4.51;62.71;103165.41;5011861;27;45345;-73
2023/01/24 10:07:56;;;;;;;;;60.50;45.50;;;;;4.73;63.35;103190.16;5016690;27;45497;-75
2023/01/24 10:10:37;;;;;;;;;51.00;40.50;;;;;4.75;62.83;103194.66;4998868;27;45563;-72
2023/01/24 10:13:08;;;;;;;;;55.75;42.75;;;;;4.78;62.42;103194.84;5011200;27;45463;-69
2023/01/24 10:15:49;;;;;;;;;53.25;41.25;;;;;4.87;68.34;103195.44;5016081;27;45343;-69
2023/01/24 10:18:37;;;;;;;;;54.00;41.75;;;;;4.98;64.97;103184.84;5014759;27;45363;-67
2023/01/24 10:21:24;;;;;;;;;56.00;42.50;;;;;5.04;63.91;103193.94;5012336;27;45422;-67
2023/01/24 10:23:58;;;;;;;;;52.75;40.75;;;;;5.03;62.81;103188.63;5042760;27;46557;-66
2023/01/24 10:26:47;;;;;;;;;55.00;41.00;;;;;5.06;62.66;103176.75;5052639;27;45480;-67
2023/01/24 10:29:30;;;;;;;;;56.00;40.75;;;;;5.10;62.49;103176.16;5000348;27;45483;-71
2023/01/24 10:32:03;;;;;;;;;56.00;40.25;;;;;5.10;62.03;103178.75;5015201;27;45649;-69
2023/01/24 10:34:32;;;;;;;;;61.75;45.50;;;;;4.99;62.06;103171.97;5011035;27;45535;-70
2023/01/24 10:37:17;;;;;;;;;54.75;42.75;;;;;4.96;62.96;103176.97;5008072;27;45511;-67
2023/01/24 10:39:43;;;;;;;;;55.50;42.75;;;;;4.97;62.67;103165.75;5012149;27;45469;-68
2023/01/24 10:42:22;;;;;;;;;51.00;40.50;;;;;4.98;62.77;103166.66;5012033;27;45489;-67
2023/01/24 10:44:49;;;;;;;;;59.75;44.50;;;;;4.97;62.56;103165.75;4997441;27;45466;-67
2023/01/24 10:47:38;;;;;;;;;58.50;43.75;;;;;4.82;62.60;103175.19;5011613;27;45431;-69
2023/01/24 10:50:09;;;;;;;;;58.00;43.25;;;;;4.68;62.86;103154.41;5014533;27;45515;-67
2023/01/24 10:52:35;;;;;;;;;51.75;40.75;;;;;4.83;63.05;103167.47;5010461;27;45449;-67
2023/01/24 10:55:05;;;;;;;;;50.50;39.50;;;;;4.88;63.03;103158.28;5014899;27;46300;-69
2023/01/24 10:57:49;;;;;;;;;53.25;39.25;;;;;4.91;62.46;103151.47;5015994;27;45571;-69
2023/01/24 11:00:14;;;;;;;;;51.25;40.25;;;;;4.99;62.70;103158.09;5002618;27;45975;-68
2023/01/24 11:02:42;;;;;;;;;47.50;37.25;;;;;5.01;62.41;103157.38;5010344;27;45632;-67
2023/01/24 11:05:13;;;;;;;;;50.50;39.50;;;;;5.05;62.38;103161.97;5009991;27;45459;-68
2023/01/24 11:07:45;;;;;;;;;54.50;43.50;;;;;5.06;62.47;103155.06;5011787;27;45759;-67
2023/01/24 11:10:34;;;;;;;;;54.50;42.50;;;;;5.00;62.16;103134.78;5012256;27;45394;-72
2023/01/24 11:13:02;;;;;;;;;63.00;45.25;;;;;5.00;62.76;103145.16;5014549;27;45285;-71
2023/01/24 11:15:32;;;;;;;;;65.75;47.00;;;;;4.78;62.74;103123.84;5011487;27;47330;-72
2023/01/24 11:18:28;;;;;;;;;56.50;41.25;;;;;4.91;62.97;103139.38;5011320;27;45553;-67
2023/01/24 11:21:10;;;;;;;;;59.00;42.25;;;;;4.95;62.95;103144.00;5016003;27;45388;-75
2023/01/24 11:23:35;;;;;;;;;55.00;39.75;;;;;4.96;62.53;103138.00;5013149;27;45779;-72
2023/01/24 11:26:04;;;;;;;;;50.75;40.00;;;;;5.05;62.82;103138.59;5015716;27;45493;-74
2023/01/24 11:28:32;;;;;;;;;49.75;37.00;;;;;5.12;62.69;103132.06;5011545;27;45420;-79
2023/01/24 11:31:14;;;;;;;;;54.25;41.75;;;;;4.99;62.59;103099.25;5010638;27;45444;-77
2023/01/24 11:34:15;;;;;;;;;53.75;41.50;;;;;5.17;62.52;103117.66;5011344;27;45618;-77
2023/01/24 11:36:50;;;;;;;;;55.75;41.25;;;;;5.30;62.31;103140.13;4998369;27;45794;-77
2023/01/24 11:39:24;;;;;;;;;53.50;40.50;;;;;5.34;62.37;103126.53;5006818;27;45852;-74
2023/01/24 11:42:12;;;;;;;;;52.50;40.75;;;;;5.37;61.91;103131.00;5045973;27;45527;-66
2023/01/24 11:45:06;;;;;;;;;52.50;39.75;;;;;5.30;62.20;103114.13;5020477;27;45794;-69
2023/01/24 11:47:46;;;;;;;;;54.25;42.50;;;;;5.35;61.77;103119.63;5071306;27;46051;-69
2023/01/24 11:50:35;;;;;;;;;47.75;34.75;;;;;5.35;61.78;103111.81;5011875;27;45651;-71
2023/01/24 11:53:28;;;;;;;;;49.25;39.00;;;;;5.43;61.64;103120.97;5006535;27;45794;-67
2023/01/24 11:56:16;;;;;;;;;50.00;40.00;;;;;5.45;61.67;103125.44;5026849;27;45476;-68
2023/01/24 11:59:20;;;;;;;;;48.00;38.25;;;;;5.49;61.62;103117.03;5036414;27;47939;-75
2023/01/24 12:02:23;;;;;;;;;51.75;39.00;;;;;5.50;61.65;103115.34;5025431;27;45861;-68
2023/01/24 12:04:59;;;;;;;;;53.75;42.50;;;;;5.53;61.52;103108.63;5033428;27;45698;-68
2023/01/24 12:07:42;;;;;;;;;58.25;43.25;;;;;5.47;61.87;103107.38;5029875;27;45416;-69
2023/01/24 12:10:38;;;;;;;;;55.50;41.00;;;;;5.38;62.04;103101.59;5006972;27;45487;-69